createdAt,value
2018-10-09T00:01:54.753Z,35.07
2018-10-09T00:04:23.225Z,36.30
2018-10-09T00:06:51.720Z,37.53
2018-10-09T00:09:20.166Z,36.63
2018-10-09T00:11:48.722Z,38.60
2018-10-09T00:14:17.271Z,36.53
2018-10-09T00:16:45.766Z,38.10
2018-10-09T00:19:14.213Z,36.80
2018-10-09T00:21:42.673Z,39.90
2018-10-09T00:24:11.125Z,38.10
2018-10-09T00:26:39.610Z,39.53
2018-10-09T00:29:08.081Z,38.80
2018-10-09T00:31:36.574Z,37.40
2018-10-09T00:34:05.494Z,41.37
2018-10-09T00:36:34.237Z,38.93
2018-10-09T00:39:02.817Z,37.77
2018-10-09T00:41:31.358Z,36.93
2018-10-09T00:43:59.837Z,36.53
2018-10-09T00:46:28.320Z,36.60
2018-10-09T00:48:56.804Z,36.80
2018-10-09T00:51:25.386Z,35.83
2018-10-09T00:53:53.822Z,35.73
2018-10-09T00:56:22.304Z,36.30
2018-10-09T00:58:50.853Z,37.83
2018-10-09T01:01:20.276Z,36.93
2018-10-09T01:03:48.825Z,37.90
2018-10-09T01:06:17.433Z,36.13
2018-10-09T01:08:45.942Z,39.10
2018-10-09T01:11:14.378Z,34.80
2018-10-09T01:13:42.918Z,35.27
2018-10-09T01:16:11.397Z,35.40
2018-10-09T01:18:39.903Z,35.07
2018-10-09T01:21:08.559Z,35.50
2018-10-09T01:23:37.158Z,35.67
2018-10-09T01:26:05.641Z,35.43
2018-10-09T01:28:34.115Z,37.83
2018-10-09T01:31:02.558Z,35.97
2018-10-09T01:33:31.045Z,37.40
2018-10-09T01:35:59.525Z,32.70
2018-10-09T01:38:28.011Z,35.90
2018-10-09T01:40:56.493Z,36.60
2018-10-09T01:43:24.960Z,35.00
2018-10-09T01:45:53.442Z,34.77
2018-10-09T01:48:21.886Z,35.00
2018-10-09T01:50:50.365Z,34.87
2018-10-09T01:53:18.815Z,34.17
2018-10-09T01:55:47.562Z,36.27
2018-10-09T01:58:16.471Z,39.30
2018-10-09T02:00:44.991Z,33.27
2018-10-09T02:03:13.449Z,32.77
2018-10-09T02:05:41.929Z,34.00
2018-10-09T02:08:10.445Z,34.50
2018-10-09T02:10:39.135Z,31.20
2018-10-09T02:13:08.205Z,32.20
2018-10-09T02:15:36.847Z,33.10
2018-10-09T02:18:05.438Z,32.40
2018-10-09T02:20:34.033Z,33.27
2018-10-09T02:23:02.821Z,32.60
2018-10-09T02:25:31.807Z,32.10
2018-10-09T02:28:00.457Z,32.10
2018-10-09T02:30:29.069Z,34.93
2018-10-09T02:33:03.290Z,36.50
2018-10-09T02:35:31.931Z,34.70
2018-10-09T02:38:00.526Z,36.97
2018-10-09T02:40:29.082Z,36.67
2018-10-09T02:42:57.555Z,35.80
2018-10-09T02:45:26.026Z,39.07
2018-10-09T02:47:54.606Z,38.03
2018-10-09T02:50:23.289Z,38.20
2018-10-09T02:52:51.838Z,37.70
2018-10-09T02:55:20.364Z,38.43
2018-10-09T02:57:48.857Z,38.07
2018-10-09T03:00:17.341Z,38.90
2018-10-09T03:02:45.841Z,38.17
2018-10-09T03:05:14.313Z,37.80
2018-10-09T03:07:43.033Z,39.07
2018-10-09T03:10:11.753Z,41.17
2018-10-09T03:12:40.217Z,39.57
2018-10-09T03:15:08.701Z,41.43
2018-10-09T03:17:37.156Z,40.43
2018-10-09T03:20:05.814Z,42.37
2018-10-09T03:22:34.311Z,40.13
2018-10-09T03:25:02.858Z,41.43
2018-10-09T03:27:31.408Z,40.70
2018-10-09T03:29:59.972Z,41.43
2018-10-09T03:32:28.545Z,40.57
2018-10-09T03:34:57.126Z,42.23
2018-10-09T03:37:25.580Z,39.63
2018-10-09T03:39:54.560Z,39.87
2018-10-09T03:42:23.112Z,42.08
2018-10-09T03:44:51.625Z,44.67
2018-10-09T03:47:20.157Z,42.05
2018-10-09T03:49:48.701Z,45.20
2018-10-09T03:52:17.217Z,44.00
2018-10-09T03:54:45.694Z,41.95
2018-10-09T03:57:14.346Z,45.03
2018-10-09T03:59:42.801Z,42.03
2018-10-09T04:02:11.597Z,44.80
2018-10-09T04:04:40.287Z,44.58
2018-10-09T04:07:08.821Z,45.87
2018-10-09T04:09:37.473Z,45.40
2018-10-09T04:12:05.908Z,41.70
2018-10-09T04:14:34.381Z,44.08
2018-10-09T04:17:02.897Z,40.73
2018-10-09T04:19:31.397Z,40.10
2018-10-09T04:21:59.830Z,42.10
2018-10-09T04:24:28.904Z,41.80
2018-10-09T04:26:57.420Z,43.57
2018-10-09T04:29:26.441Z,40.77
2018-10-09T04:31:54.892Z,43.50
2018-10-09T04:34:23.413Z,44.40
2018-10-09T04:36:51.910Z,43.07
2018-10-09T04:39:20.417Z,42.30
2018-10-09T04:41:48.905Z,42.55
2018-10-09T04:44:17.369Z,43.03
2018-10-09T04:46:45.857Z,43.10
2018-10-09T04:49:14.398Z,43.80
2018-10-09T04:51:42.881Z,44.73
2018-10-09T04:54:11.375Z,44.80
2018-10-09T04:56:39.857Z,45.20
2018-10-09T04:59:08.395Z,43.37
2018-10-09T05:01:36.884Z,43.73
2018-10-09T05:04:05.390Z,45.03
2018-10-09T05:06:33.883Z,47.60
2018-10-09T05:09:02.417Z,45.27
2018-10-09T05:11:30.899Z,44.50
2018-10-09T05:13:59.381Z,42.40
2018-10-09T05:16:28.514Z,43.07
2018-10-09T05:18:57.242Z,43.37
2018-10-09T05:21:25.718Z,40.97
2018-10-09T05:23:54.248Z,41.10
2018-10-09T05:26:22.757Z,42.90
2018-10-09T05:28:51.258Z,43.92
2018-10-09T05:31:19.768Z,40.73
2018-10-09T05:33:48.246Z,38.20
2018-10-09T05:36:16.702Z,39.53
2018-10-09T05:38:45.301Z,38.17
2018-10-09T05:41:14.329Z,38.00
2018-10-09T05:43:42.830Z,35.33
2018-10-09T05:46:11.351Z,38.27
2018-10-09T05:48:40.074Z,38.50
2018-10-09T05:51:09.025Z,37.80
2018-10-09T05:53:37.473Z,40.50
2018-10-09T05:56:06.126Z,38.63
2018-10-09T05:58:34.623Z,36.03
2018-10-09T06:01:03.157Z,37.67
2018-10-09T06:03:31.655Z,41.80
2018-10-09T06:06:00.251Z,36.43
2018-10-09T06:08:28.742Z,35.73
2018-10-09T06:10:57.258Z,38.57
2018-10-09T06:13:25.761Z,37.00
2018-10-09T06:15:54.296Z,35.30
2018-10-09T06:18:23.037Z,36.03
2018-10-09T06:20:51.518Z,35.93
2018-10-09T06:23:19.994Z,37.47
2018-10-09T06:25:48.864Z,36.57
2018-10-09T06:28:17.429Z,37.90
2018-10-09T06:30:45.883Z,35.50
2018-10-09T06:33:14.794Z,34.10
2018-10-09T06:35:47.054Z,35.10
2018-10-09T06:38:15.573Z,35.30
2018-10-09T06:40:44.068Z,35.50
2018-10-09T06:43:12.545Z,36.40
2018-10-09T06:45:41.012Z,35.27
2018-10-09T06:48:09.545Z,36.70
2018-10-09T06:50:38.017Z,34.03
2018-10-09T06:53:06.538Z,37.63
2018-10-09T06:55:35.028Z,39.63
2018-10-09T06:58:03.982Z,39.40
2018-10-09T07:00:32.469Z,41.10
2018-10-09T07:03:00.993Z,38.53
2018-10-09T07:05:29.481Z,42.73
2018-10-09T07:07:57.985Z,40.77
2018-10-09T07:10:26.476Z,40.30
2018-10-09T07:12:55.197Z,40.93
2018-10-09T07:15:23.679Z,42.53
2018-10-09T07:17:52.429Z,41.20
2018-10-09T07:20:20.891Z,43.07
2018-10-09T07:22:49.394Z,41.87
2018-10-09T07:25:17.846Z,42.50
2018-10-09T07:27:46.375Z,42.47
2018-10-09T07:30:14.817Z,42.43
2018-10-09T07:32:43.313Z,42.70
2018-10-09T07:35:12.105Z,41.60
2018-10-09T07:37:40.592Z,42.23
2018-10-09T07:40:09.061Z,42.40
2018-10-09T07:42:37.546Z,41.43
2018-10-09T07:45:06.053Z,42.57
2018-10-09T07:47:34.501Z,43.43
2018-10-09T07:50:03.032Z,42.80
2018-10-09T07:52:31.515Z,45.10
2018-10-09T07:55:00.010Z,44.43
2018-10-09T07:57:28.485Z,43.53
2018-10-09T07:59:56.998Z,43.70
2018-10-09T08:02:25.461Z,40.07
2018-10-09T08:04:54.366Z,41.87
2018-10-09T08:07:23.282Z,42.20
2018-10-09T08:09:51.789Z,44.07
2018-10-09T08:12:20.262Z,43.13
2018-10-09T08:14:48.990Z,43.00
2018-10-09T08:17:17.458Z,42.50
2018-10-09T08:19:46.357Z,43.43
2018-10-09T08:22:14.882Z,44.00
2018-10-09T08:24:43.335Z,43.57
2018-10-09T08:27:11.791Z,43.20
2018-10-09T08:29:40.282Z,38.90
2018-10-09T08:32:08.827Z,44.40
2018-10-09T08:34:37.382Z,45.67
2018-10-09T08:37:05.854Z,46.23
2018-10-09T08:39:34.346Z,41.73
2018-10-09T08:42:02.803Z,44.97
2018-10-09T08:44:31.436Z,43.50
2018-10-09T08:47:00.321Z,47.90
2018-10-09T08:49:28.822Z,48.60
2018-10-09T08:51:57.388Z,45.20
2018-10-09T08:54:25.845Z,43.10
2018-10-09T08:56:54.307Z,44.27
2018-10-09T08:59:22.773Z,46.87
2018-10-09T09:01:51.277Z,43.37
2018-10-09T09:04:19.765Z,42.60
2018-10-09T09:06:48.240Z,40.70
2018-10-09T09:09:16.807Z,42.90
2018-10-09T09:11:45.266Z,45.13
2018-10-09T09:14:13.762Z,42.90
2018-10-09T09:16:42.210Z,44.40
2018-10-09T09:19:10.730Z,45.73
2018-10-09T09:21:39.200Z,43.80
2018-10-09T09:24:07.814Z,44.60
2018-10-09T09:26:36.391Z,43.87
2018-10-09T09:29:04.905Z,42.43
2018-10-09T09:31:33.625Z,44.60
2018-10-09T09:34:02.134Z,45.07
2018-10-09T09:36:30.611Z,44.30
2018-10-09T09:38:59.069Z,44.20
2018-10-09T09:41:27.588Z,42.53
2018-10-09T09:43:56.093Z,43.20
2018-10-09T09:46:24.856Z,39.73
2018-10-09T09:48:53.346Z,39.87
2018-10-09T09:51:21.865Z,42.90
2018-10-09T09:53:50.378Z,41.90
2018-10-09T09:56:18.866Z,41.10
2018-10-09T09:58:47.493Z,32.60
2018-10-09T10:01:15.890Z,35.97
2018-10-09T10:03:44.418Z,35.27
2018-10-09T10:06:12.879Z,36.10
2018-10-09T10:08:41.379Z,37.73
2018-10-09T10:11:09.861Z,33.67
2018-10-09T10:13:38.313Z,33.70
2018-10-09T10:16:06.827Z,31.43
2018-10-09T10:18:35.345Z,32.70
2018-10-09T10:21:03.886Z,30.27
2018-10-09T10:23:32.366Z,28.50
2018-10-09T10:26:00.881Z,33.50
2018-10-09T10:28:29.377Z,31.83
2018-10-09T10:30:57.873Z,28.57
2018-10-09T10:33:26.365Z,29.23
2018-10-09T10:35:54.901Z,26.27
2018-10-09T10:38:23.613Z,26.67
2018-10-09T10:40:52.155Z,27.43
2018-10-09T10:43:20.625Z,26.77
2018-10-09T10:45:49.410Z,26.13
2018-10-09T10:48:17.926Z,22.57
2018-10-09T10:50:46.413Z,24.80
2018-10-09T10:53:14.876Z,26.80
2018-10-09T10:55:43.378Z,24.27
2018-10-09T10:58:11.870Z,23.87
2018-10-09T11:00:40.375Z,27.83
2018-10-09T11:03:08.878Z,27.77
2018-10-09T11:05:37.399Z,20.87
2018-10-09T11:08:06.246Z,26.03
2018-10-09T11:10:34.942Z,24.93
2018-10-09T11:13:04.177Z,26.47
2018-10-09T11:15:32.682Z,26.70
2018-10-09T11:18:01.138Z,27.30
2018-10-09T11:20:29.917Z,25.87
2018-10-09T11:22:58.371Z,24.37
2018-10-09T11:25:26.965Z,27.53
2018-10-09T11:27:55.417Z,27.90
2018-10-09T11:30:23.921Z,27.60
2018-10-09T11:32:53.241Z,27.40
2018-10-09T11:35:21.782Z,27.60
2018-10-09T11:37:50.444Z,25.20
2018-10-09T11:40:18.982Z,25.93
2018-10-09T11:42:47.710Z,27.00
2018-10-09T11:45:16.172Z,27.30
2018-10-09T11:47:45.086Z,27.63
2018-10-09T11:50:13.559Z,25.27
2018-10-09T11:52:42.047Z,24.30
2018-10-09T11:55:10.505Z,26.23
2018-10-09T11:57:38.993Z,25.67
2018-10-09T12:00:08.739Z,27.40
2018-10-09T12:02:37.269Z,27.60
2018-10-09T12:05:05.733Z,26.27
2018-10-09T12:07:34.240Z,25.60
2018-10-09T12:10:02.828Z,25.73
2018-10-09T12:12:31.389Z,23.43
2018-10-09T12:14:59.865Z,26.77
2018-10-09T12:17:28.330Z,24.67
2018-10-09T12:19:56.858Z,23.50
2018-10-09T12:22:25.473Z,23.70
2018-10-09T12:24:53.969Z,24.70
2018-10-09T12:27:22.437Z,25.60
2018-10-09T12:29:51.761Z,22.60
2018-10-09T12:32:22.036Z,23.03
2018-10-09T12:34:52.515Z,21.20
2018-10-09T12:37:21.346Z,24.97
2018-10-09T12:39:49.891Z,23.00
2018-10-09T12:42:18.416Z,25.43
2018-10-09T12:44:48.333Z,25.70
2018-10-09T12:47:16.892Z,24.33
2018-10-09T12:49:45.339Z,23.37
2018-10-09T12:52:13.849Z,26.10
2018-10-09T12:54:42.303Z,23.77
2018-10-09T12:57:11.092Z,26.10
2018-10-09T12:59:39.530Z,25.63
2018-10-09T13:02:08.097Z,24.73
2018-10-09T13:04:36.525Z,27.00
2018-10-09T13:07:05.050Z,22.30
2018-10-09T13:09:33.592Z,24.20
2018-10-09T13:12:02.056Z,21.83
2018-10-09T13:14:30.570Z,24.40
2018-10-09T13:16:59.100Z,24.30
2018-10-09T13:19:27.518Z,24.87
2018-10-09T13:21:56.290Z,23.90
2018-10-09T13:24:24.697Z,23.23
2018-10-09T13:26:53.221Z,20.73
2018-10-09T13:29:21.682Z,22.67
2018-10-09T13:31:50.577Z,21.50
2018-10-09T13:34:19.804Z,22.20
2018-10-09T13:36:48.473Z,21.57
2018-10-09T13:39:16.958Z,22.07
2018-10-09T13:41:45.433Z,21.60
2018-10-09T13:44:13.972Z,21.83
2018-10-09T13:46:42.601Z,19.23
2018-10-09T13:49:11.701Z,20.90
2018-10-09T13:51:40.254Z,18.97
2018-10-09T13:54:08.765Z,19.30
2018-10-09T13:56:37.289Z,19.70
2018-10-09T13:59:06.221Z,19.30
2018-10-09T14:01:34.727Z,19.97
2018-10-09T14:04:03.185Z,18.37
2018-10-09T14:06:31.705Z,18.63
2018-10-09T14:09:00.178Z,19.10
2018-10-09T14:11:28.650Z,19.03
2018-10-09T14:13:57.165Z,19.80
2018-10-09T14:16:25.936Z,17.67
2018-10-09T14:18:54.394Z,19.60
2018-10-09T14:21:22.862Z,19.60
2018-10-09T14:23:51.318Z,20.20
2018-10-09T14:26:19.829Z,20.10
2018-10-09T14:28:48.297Z,19.67
2018-10-09T14:31:16.769Z,19.50
2018-10-09T14:33:45.277Z,18.60
2018-10-09T14:36:13.726Z,18.27
2018-10-09T14:38:42.214Z,20.40
2018-10-09T14:41:10.673Z,18.77
2018-10-09T14:43:39.175Z,18.83
2018-10-09T14:46:08.046Z,19.03
2018-10-09T14:48:36.536Z,17.90
2018-10-09T14:51:05.084Z,19.83
2018-10-09T14:53:33.687Z,17.87
2018-10-09T14:56:02.185Z,18.70
2018-10-09T14:58:30.661Z,17.97
2018-10-09T15:00:59.138Z,18.50
2018-10-09T15:03:27.633Z,18.00
2018-10-09T15:05:56.175Z,18.73
2018-10-09T15:08:24.631Z,19.20
2018-10-09T15:10:53.152Z,19.60
2018-10-09T15:13:21.587Z,18.47
2018-10-09T15:15:50.121Z,17.10
2018-10-09T15:18:18.625Z,18.50
2018-10-09T15:20:47.229Z,18.37
2018-10-09T15:23:15.937Z,18.67
2018-10-09T15:25:45.878Z,19.00
2018-10-09T15:28:15.389Z,18.40
2018-10-09T15:30:44.633Z,17.87
2018-10-09T15:33:14.349Z,17.00
2018-10-09T15:35:42.870Z,18.33
2018-10-09T15:38:12.684Z,18.20
2018-10-09T15:40:41.217Z,18.33
2018-10-09T15:43:09.735Z,16.20
2018-10-09T15:45:38.246Z,17.20
2018-10-09T15:48:06.730Z,16.50
2018-10-09T15:50:35.241Z,18.00
2018-10-09T15:53:03.837Z,20.20
2018-10-09T15:55:32.401Z,17.03
2018-10-09T15:58:00.971Z,17.40
2018-10-09T16:00:33.685Z,17.27
2018-10-09T16:03:02.122Z,18.30
2018-10-09T16:05:30.597Z,17.50
2018-10-09T16:07:59.026Z,16.70
2018-10-09T16:10:27.514Z,15.60
2018-10-09T16:12:56.013Z,15.70
2018-10-09T16:15:24.466Z,14.67
2018-10-09T16:17:52.953Z,15.93
2018-10-09T16:20:21.410Z,16.40
2018-10-09T16:22:50.062Z,15.10
2018-10-09T16:25:18.538Z,14.60
2018-10-09T16:27:47.073Z,15.77
2018-10-09T16:30:15.569Z,13.97
2018-10-09T16:32:44.369Z,16.03
2018-10-09T16:35:12.647Z,16.47
2018-10-09T16:37:41.121Z,16.07
2018-10-09T16:40:09.885Z,16.87
2018-10-09T16:42:38.381Z,15.80
2018-10-09T16:45:06.916Z,17.17
2018-10-09T16:47:35.758Z,16.63
2018-10-09T16:50:04.301Z,18.47
2018-10-09T16:52:32.798Z,17.67
2018-10-09T16:55:01.238Z,18.30
2018-10-09T16:57:29.710Z,16.50
2018-10-09T16:59:58.182Z,18.93
2018-10-09T17:02:26.653Z,19.03
2018-10-09T17:04:55.121Z,18.93
2018-10-09T17:07:23.679Z,17.27
2018-10-09T17:09:52.180Z,18.93
2018-10-09T17:12:20.654Z,18.70
2018-10-09T17:14:49.111Z,18.87
2018-10-09T17:17:17.634Z,20.50
2018-10-09T17:19:46.232Z,21.00
2018-10-09T17:22:14.653Z,21.47
2018-10-09T17:24:43.191Z,21.70
2018-10-09T17:27:11.642Z,22.53
2018-10-09T17:29:40.143Z,21.20
2018-10-09T17:32:08.629Z,21.47
2018-10-09T17:34:37.233Z,21.87
2018-10-09T17:37:05.806Z,23.00
2018-10-09T17:39:34.386Z,24.23
2018-10-09T17:42:02.904Z,23.60
2018-10-09T17:44:31.485Z,23.77
2018-10-09T17:47:04.200Z,23.30
2018-10-09T17:49:32.869Z,26.37
2018-10-09T17:52:01.348Z,23.07
2018-10-09T17:54:29.821Z,25.70
2018-10-09T17:56:59.006Z,24.37
2018-10-09T17:59:27.489Z,26.70
2018-10-09T18:01:56.001Z,26.90
2018-10-09T18:04:24.505Z,28.77
2018-10-09T18:06:52.994Z,27.87
2018-10-09T18:09:23.254Z,32.10
2018-10-09T18:11:51.761Z,29.97
2018-10-09T18:14:20.270Z,31.47
2018-10-09T18:16:48.730Z,30.00
2018-10-09T18:19:17.245Z,30.93
2018-10-09T18:21:46.035Z,31.50
2018-10-09T18:24:14.533Z,30.87
2018-10-09T18:26:43.818Z,32.80
2018-10-09T18:29:12.297Z,31.90
2018-10-09T18:31:40.757Z,35.17
2018-10-09T18:34:09.285Z,32.10
2018-10-09T18:36:38.018Z,33.37
2018-10-09T18:39:10.442Z,31.03
2018-10-09T18:41:39.094Z,32.33
2018-10-09T18:44:07.461Z,34.40
2018-10-09T18:46:52.563Z,32.43
2018-10-09T18:49:21.050Z,33.97
2018-10-09T18:51:49.494Z,33.43
2018-10-09T18:54:17.967Z,33.77
2018-10-09T18:56:46.428Z,34.40
2018-10-09T18:59:14.947Z,34.00
2018-10-09T19:01:43.442Z,34.40
2018-10-09T19:04:12.191Z,34.70
2018-10-09T19:06:40.674Z,34.07
2018-10-09T19:09:11.374Z,35.53
2018-10-09T19:11:40.085Z,34.00
2018-10-09T19:14:08.833Z,33.30
2018-10-09T19:16:37.335Z,33.50
2018-10-09T19:19:05.961Z,34.40
2018-10-09T19:21:34.470Z,33.70
2018-10-09T19:24:02.942Z,35.60
2018-10-09T19:26:31.508Z,35.70
2018-10-09T19:29:00.223Z,34.70
2018-10-09T19:31:28.745Z,34.87
2018-10-09T19:33:57.215Z,35.13
2018-10-09T19:36:25.766Z,34.97
2018-10-09T19:38:54.274Z,36.30
2018-10-09T19:41:22.789Z,35.43
2018-10-09T19:43:51.318Z,36.03
2018-10-09T19:46:19.852Z,33.80
2018-10-09T19:48:48.352Z,36.23
2018-10-09T19:51:17.757Z,35.60
2018-10-09T19:53:46.190Z,36.40
2018-10-09T19:56:14.735Z,36.80
2018-10-09T19:58:43.310Z,37.23
2018-10-09T20:01:11.959Z,37.27
2018-10-09T20:03:40.434Z,36.23
2018-10-09T20:06:08.974Z,37.97
2018-10-09T20:08:37.483Z,38.50
2018-10-09T20:11:06.040Z,36.47
2018-10-09T20:13:34.546Z,37.03
2018-10-09T20:16:03.050Z,39.40
2018-10-09T20:18:31.957Z,37.07
2018-10-09T20:21:00.624Z,38.23
2018-10-09T20:23:29.097Z,37.73
2018-10-09T20:25:57.842Z,38.03
2018-10-09T20:28:26.344Z,36.43
2018-10-09T20:30:54.903Z,38.03
2018-10-09T20:33:23.367Z,35.73
2018-10-09T20:35:51.931Z,37.97
2018-10-09T20:38:20.429Z,38.30
2018-10-09T20:40:48.958Z,34.93
2018-10-09T20:43:17.538Z,37.90
2018-10-09T20:45:46.081Z,35.93
2018-10-09T20:48:14.589Z,37.00
2018-10-09T20:50:43.123Z,35.67
2018-10-09T20:53:11.599Z,36.40
2018-10-09T20:55:40.134Z,38.00
2018-10-09T20:58:08.638Z,36.73
2018-10-09T21:00:37.197Z,37.87
2018-10-09T21:03:05.762Z,37.40
2018-10-09T21:05:34.301Z,37.33
2018-10-09T21:08:02.822Z,36.23
2018-10-09T21:10:31.387Z,37.67
2018-10-09T21:12:59.881Z,38.37
2018-10-09T21:15:28.353Z,38.30
2018-10-09T21:17:56.877Z,36.23
2018-10-09T21:20:25.349Z,39.03
2018-10-09T21:22:53.914Z,38.17
2018-10-09T21:25:22.425Z,36.27
2018-10-09T21:27:51.077Z,36.77
2018-10-09T21:30:19.622Z,36.73
2018-10-09T21:32:48.138Z,36.93
2018-10-09T21:35:16.598Z,37.30
2018-10-09T21:37:45.112Z,37.60
2018-10-09T21:40:13.603Z,36.43
2018-10-09T21:42:42.081Z,36.63
2018-10-09T21:45:10.545Z,36.53
2018-10-09T21:47:43.262Z,38.23
2018-10-09T21:50:12.082Z,36.47
2018-10-09T21:52:40.662Z,35.80
2018-10-09T21:55:09.175Z,34.03
2018-10-09T21:57:37.776Z,35.10
2018-10-09T22:00:06.421Z,37.37
2018-10-09T22:02:34.945Z,37.97
2018-10-09T22:05:03.514Z,36.60
2018-10-09T22:07:32.269Z,37.58
2018-10-09T22:10:01.121Z,39.70
2018-10-09T22:12:29.624Z,38.80
2018-10-09T22:14:58.130Z,36.93
2018-10-09T22:17:26.961Z,38.13
2018-10-09T22:19:55.715Z,37.87
2018-10-09T22:22:24.518Z,36.30
2018-10-09T22:24:52.992Z,36.33
2018-10-09T22:27:21.912Z,37.73
2018-10-09T22:29:50.607Z,39.35
2018-10-09T22:32:19.142Z,40.50
2018-10-09T22:34:47.989Z,38.30
2018-10-09T22:37:16.676Z,38.17
2018-10-09T22:39:45.278Z,37.10
2018-10-09T22:42:13.780Z,37.25
2018-10-09T22:44:42.267Z,39.58
2018-10-09T22:47:10.774Z,37.73
2018-10-09T22:49:39.294Z,37.35
2018-10-09T22:52:07.910Z,36.83
2018-10-09T22:54:36.403Z,39.08
2018-10-09T22:57:04.988Z,37.43
2018-10-09T22:59:33.827Z,37.67
2018-10-09T23:02:02.458Z,38.90
2018-10-09T23:04:30.993Z,40.40
2018-10-09T23:06:59.518Z,41.05
2018-10-09T23:09:28.022Z,39.60
2018-10-09T23:11:56.521Z,41.95
2018-10-09T23:14:25.016Z,40.07
2018-10-09T23:16:53.486Z,40.33
2018-10-09T23:19:22.010Z,41.23
2018-10-09T23:21:50.513Z,44.03
2018-10-09T23:24:19.073Z,44.85
2018-10-09T23:26:47.565Z,43.85
2018-10-09T23:29:16.074Z,44.25
2018-10-09T23:31:44.959Z,45.80
2018-10-09T23:34:13.470Z,45.20
2018-10-09T23:36:41.963Z,44.70
2018-10-09T23:39:10.474Z,44.23
2018-10-09T23:41:38.981Z,45.70
2018-10-09T23:44:07.547Z,45.20
2018-10-09T23:46:36.093Z,46.80
2018-10-09T23:49:04.653Z,45.38
2018-10-09T23:51:33.137Z,42.93
2018-10-09T23:54:01.647Z,46.80
2018-10-09T23:56:30.126Z,43.20
2018-10-09T23:58:58.739Z,43.73
